Time;durP1;ratioP1;P1;durP2;ratioP2;P2;SDS_P1;SDS_P2;PMS_P1;PMS_P2;Temp;Humidity;BMP_temperature;BMP_pressure;BME280_temperature;BME280_humidity;BME280_pressure;Samples;Min_cycle;Max_cycle;Signal;HPM_P1;HPM_P2
2024/03/31 00:00:12;;;;;;;19.17;18.27;;;9.10;99.90;;;;;;5051391;28;20029;-74
2024/03/31 00:02:39;;;;;;;19.33;18.42;;;9.20;99.90;;;;;;5051974;28;20037;-74
2024/03/31 00:05:06;;;;;;;21.55;20.55;;;9.20;99.90;;;;;;5052381;28;20037;-75
2024/03/31 00:07:32;;;;;;;18.95;18.05;;;9.30;99.90;;;;;;5051833;28;20036;-74
2024/03/31 00:09:58;;;;;;;23.17;22.08;;;9.20;99.90;;;;;;5051432;28;20033;-74
2024/03/31 00:12:24;;;;;;;20.23;19.30;;;9.30;99.90;;;;;;5051851;28;20029;-74
2024/03/31 00:14:51;;;;;;;23.27;22.20;;;9.30;99.90;;;;;;5052209;28;20040;-74
2024/03/31 00:17:17;;;;;;;24.02;22.90;;;9.30;99.90;;;;;;5050291;28;20065;-74
2024/03/31 00:19:43;;;;;;;29.35;27.92;;;9.40;99.90;;;;;;5052266;28;20382;-74
2024/03/31 00:22:10;;;;;;;27.88;26.55;;;9.30;99.90;;;;;;5051565;28;20516;-74
2024/03/31 00:24:36;;;;;;;26.92;25.65;;;9.20;99.90;;;;;;5052328;28;20052;-74
2024/03/31 00:27:02;;;;;;;22.35;21.33;;;9.20;99.90;;;;;;5033684;28;20037;-74
2024/03/31 00:29:29;;;;;;;24.27;23.15;;;9.10;99.90;;;;;;5031975;28;20022;-74
2024/03/31 00:31:55;;;;;;;35.92;34.22;;;9.20;99.90;;;;;;5045680;28;20040;-74
2024/03/31 00:34:24;;;;;;;27.05;25.77;;;9.10;99.90;;;;;;5052097;28;20033;-74
2024/03/31 00:36:50;;;;;;;29.83;28.42;;;9.00;99.90;;;;;;5051545;28;20044;-74
2024/03/31 00:39:16;;;;;;;43.45;41.40;;;9.10;99.90;;;;;;5052003;28;20029;-74
2024/03/31 00:41:42;;;;;;;39.08;37.25;;;9.30;99.90;;;;;;5051899;28;20033;-74
2024/03/31 00:44:08;;;;;;;53.13;50.63;;;9.40;99.90;;;;;;5051617;28;20029;-74
2024/03/31 00:46:35;;;;;;;68.97;65.70;;;9.50;99.90;;;;;;5051434;28;20422;-74
2024/03/31 00:49:01;;;;;;;51.60;49.17;;;9.70;99.90;;;;;;5051968;28;20033;-74
2024/03/31 00:51:27;;;;;;;54.63;52.03;;;9.60;99.90;;;;;;5054138;28;20078;-74
2024/03/31 00:53:53;;;;;;;70.63;67.22;;;9.60;99.90;;;;;;5056029;28;20029;-74
2024/03/31 00:56:19;;;;;;;66.15;63.00;;;9.70;99.90;;;;;;5054249;28;20029;-75
2024/03/31 00:58:45;;;;;;;69.28;66.03;;;9.80;99.90;;;;;;5055611;28;20036;-74
2024/03/31 01:01:11;;;;;;;74.85;71.30;;;9.80;99.90;;;;;;5054935;28;20029;-74
2024/03/31 01:03:38;;;;;;;61.30;58.45;;;9.80;99.90;;;;;;5056312;28;20051;-74
2024/03/31 01:06:10;;;;;;;72.57;69.15;;;9.70;99.90;;;;;;5055232;28;20041;-74
2024/03/31 01:08:36;;;;;;;33.88;32.25;;;9.70;99.90;;;;;;5056080;28;20073;-74
2024/03/31 01:11:02;;;;;;;32.33;30.80;;;9.50;99.90;;;;;;5055208;28;20048;-74
2024/03/31 01:13:28;;;;;;;34.42;32.80;;;9.40;99.90;;;;;;5055332;28;20029;-74
2024/03/31 01:15:54;;;;;;;34.08;32.47;;;9.20;99.90;;;;;;5053468;28;20570;-74
2024/03/31 01:18:20;;;;;;;33.80;32.22;;;9.30;99.90;;;;;;5054464;28;20508;-74
2024/03/31 01:20:46;;;;;;;34.17;32.47;;;9.30;99.90;;;;;;5053776;28;20037;-74
2024/03/31 01:23:12;;;;;;;53.97;51.40;;;9.30;99.90;;;;;;5053652;28;20052;-73
2024/03/31 01:25:38;;;;;;;38.45;36.60;;;9.20;99.90;;;;;;5046676;28;20401;-73
2024/03/31 01:28:05;;;;;;;52.58;50.10;;;9.00;99.90;;;;;;5034060;28;20489;-73
2024/03/31 01:30:31;;;;;;;31.55;30.05;;;8.90;99.90;;;;;;5037574;28;20025;-73
2024/03/31 01:32:57;;;;;;;44.92;42.83;;;8.90;99.90;;;;;;5055279;28;20040;-73
2024/03/31 01:35:23;;;;;;;56.42;53.72;;;9.00;99.90;;;;;;5054614;28;20044;-73
2024/03/31 01:37:50;;;;;;;35.17;33.47;;;8.90;99.90;;;;;;5055246;28;20029;-73
2024/03/31 01:40:16;;;;;;;43.97;41.88;;;9.00;99.90;;;;;;5054675;28;20025;-73
2024/03/31 01:42:44;;;;;;;85.85;81.72;;;9.00;99.90;;;;;;5054920;28;20032;-73
2024/03/31 01:45:11;;;;;;;28.73;27.38;;;9.00;99.90;;;;;;5054024;28;20389;-72
2024/03/31 01:47:37;;;;;;;27.10;25.83;;;9.00;99.90;;;;;;5054961;28;20017;-73
2024/03/31 01:50:04;;;;;;;26.67;25.40;;;8.90;99.90;;;;;;5053790;28;20032;-73
2024/03/31 01:52:30;;;;;;;31.95;30.48;;;8.80;99.90;;;;;;5054451;28;20040;-73
2024/03/31 01:54:57;;;;;;;33.53;31.98;;;8.80;99.90;;;;;;5054882;28;20025;-72
2024/03/31 01:57:23;;;;;;;26.52;25.30;;;8.90;99.90;;;;;;5052848;28;20025;-73
2024/03/31 01:59:49;;;;;;;21.75;20.70;;;8.90;99.90;;;;;;5054984;28;20465;-73
2024/03/31 02:02:16;;;;;;;17.73;16.92;;;8.90;99.90;;;;;;5052333;28;20037;-73
2024/03/31 02:04:42;;;;;;;21.58;20.58;;;8.90;99.90;;;;;;5054669;28;20037;-72
2024/03/31 02:07:08;;;;;;;24.80;23.65;;;9.00;99.90;;;;;;5054056;28;20382;-73
2024/03/31 02:09:34;;;;;;;29.15;27.77;;;8.90;99.90;;;;;;5054588;28;20028;-72
2024/03/31 02:12:00;;;;;;;31.23;29.77;;;9.00;99.90;;;;;;5053743;28;20389;-73
2024/03/31 02:14:26;;;;;;;34.25;32.63;;;8.80;99.90;;;;;;5054382;28;20036;-72
2024/03/31 02:16:52;;;;;;;35.22;33.53;;;8.70;99.90;;;;;;5052005;28;20037;-72
2024/03/31 02:19:18;;;;;;;36.80;35.08;;;8.70;99.90;;;;;;5054256;28;20032;-73
2024/03/31 02:21:44;;;;;;;30.55;29.08;;;8.70;99.90;;;;;;5053704;28;20053;-73
2024/03/31 02:24:10;;;;;;;21.15;19.90;;;8.70;99.90;;;;;;5054217;28;20362;-73
2024/03/31 02:26:36;;;;;;;27.48;26.17;;;8.70;99.90;;;;;;5053782;28;20053;-74
2024/03/31 02:29:03;;;;;;;20.05;19.13;;;8.70;99.90;;;;;;5034289;28;20052;-74
2024/03/31 02:31:29;;;;;;;22.50;21.40;;;8.70;99.90;;;;;;5044621;28;20508;-74
2024/03/31 02:33:55;;;;;;;31.50;29.65;;;8.60;99.90;;;;;;5054105;28;20058;-74
2024/03/31 02:36:21;;;;;;;20.00;19.10;;;8.60;99.90;;;;;;5053377;28;20021;-74
2024/03/31 02:38:47;;;;;;;24.85;23.65;;;8.60;99.90;;;;;;5054008;28;20048;-74
2024/03/31 02:41:13;;;;;;;31.85;30.17;;;8.60;99.90;;;;;;5053303;28;20029;-74
2024/03/31 02:43:39;;;;;;;24.92;23.73;;;8.60;99.90;;;;;;5054320;28;20045;-74
2024/03/31 02:46:06;;;;;;;47.05;44.83;;;8.50;99.90;;;;;;5053018;28;20045;-73
2024/03/31 02:48:32;;;;;;;21.35;20.38;;;8.50;99.90;;;;;;5053799;28;20037;-73
2024/03/31 02:50:58;;;;;;;23.35;22.00;;;8.60;99.90;;;;;;5053395;28;20036;-74
2024/03/31 02:53:24;;;;;;;21.25;20.25;;;8.70;99.90;;;;;;5053731;28;20037;-74
2024/03/31 02:55:50;;;;;;;24.77;23.50;;;8.90;99.90;;;;;;5052843;28;20025;-74
2024/03/31 02:58:16;;;;;;;41.85;39.80;;;8.80;99.90;;;;;;5053686;28;20033;-74
2024/03/31 03:00:42;;;;;;;25.10;23.67;;;8.80;99.90;;;;;;5052014;28;20767;-74
2024/03/31 03:03:09;;;;;;;34.60;33.00;;;8.70;99.90;;;;;;5031170;28;20029;-75
2024/03/31 03:05:35;;;;;;;28.48;27.13;;;8.60;99.90;;;;;;5028902;28;20474;-73
2024/03/31 03:08:01;;;;;;;46.30;44.10;;;8.70;99.90;;;;;;5032318;28;20040;-74
2024/03/31 03:10:27;;;;;;;46.35;44.13;;;8.80;99.90;;;;;;5033660;28;20052;-74
2024/03/31 03:12:53;;;;;;;35.60;33.90;;;8.80;99.90;;;;;;5051291;28;20399;-74
2024/03/31 03:15:20;;;;;;;46.20;43.92;;;8.90;99.90;;;;;;5031318;28;20045;-74
2024/03/31 03:17:47;;;;;;;37.10;35.28;;;8.90;99.90;;;;;;5052095;28;20048;-74
2024/03/31 03:20:13;;;;;;;44.47;42.35;;;8.90;99.90;;;;;;5051370;28;20039;-74
2024/03/31 03:22:39;;;;;;;37.80;35.97;;;8.90;99.90;;;;;;5041241;28;20052;-74
2024/03/31 03:25:05;;;;;;;27.67;26.40;;;8.80;99.90;;;;;;5031764;28;20401;-74
2024/03/31 03:27:31;;;;;;;55.88;53.00;;;8.80;99.90;;;;;;5031741;28;20394;-75
2024/03/31 03:29:57;;;;;;;50.38;48.00;;;8.80;99.90;;;;;;5031855;28;20037;-74
2024/03/31 03:32:24;;;;;;;32.10;30.60;;;8.80;99.90;;;;;;5049517;28;20041;-74
2024/03/31 03:34:52;;;;;;;31.00;29.40;;;8.90;99.90;;;;;;5051783;28;20056;-74
2024/03/31 03:37:18;;;;;;;28.50;27.17;;;9.00;99.90;;;;;;5042864;28;20025;-74
2024/03/31 03:39:45;;;;;;;43.63;41.15;;;9.10;99.90;;;;;;5030636;28;20037;-74
2024/03/31 03:42:11;;;;;;;26.80;25.55;;;9.00;99.90;;;;;;5048020;28;20037;-75
2024/03/31 03:44:37;;;;;;;24.45;23.33;;;9.00;99.90;;;;;;5051756;28;20037;-74
2024/03/31 03:47:03;;;;;;;24.58;23.42;;;9.00;99.90;;;;;;5050584;28;20033;-74
2024/03/31 03:49:29;;;;;;;28.30;26.95;;;9.00;99.90;;;;;;5051209;28;20492;-74
2024/03/31 03:51:55;;;;;;;28.48;27.13;;;8.90;99.90;;;;;;5050645;28;20025;-74
2024/03/31 03:54:21;;;;;;;29.90;28.30;;;8.90;99.90;;;;;;5051917;28;20508;-74
2024/03/31 03:56:48;;;;;;;31.33;29.67;;;8.90;99.90;;;;;;5051048;28;20037;-73
2024/03/31 03:59:14;;;;;;;36.95;35.17;;;8.90;99.90;;;;;;5051742;28;20385;-74
2024/03/31 04:01:40;;;;;;;31.70;30.10;;;8.80;99.90;;;;;;5050125;28;20029;-74
2024/03/31 04:04:06;;;;;;;28.33;26.92;;;8.80;99.90;;;;;;5051372;28;20092;-74
2024/03/31 04:06:32;;;;;;;34.60;32.72;;;8.80;99.90;;;;;;5041174;28;20064;-74
2024/03/31 04:08:59;;;;;;;64.90;61.78;;;8.80;99.90;;;;;;5031214;28;20025;-74
2024/03/31 04:11:25;;;;;;;60.80;57.88;;;8.70;99.90;;;;;;5040827;28;20493;-76
2024/03/31 04:13:51;;;;;;;68.53;65.22;;;8.70;99.90;;;;;;5040723;28;20037;-77
2024/03/31 04:16:17;;;;;;;57.47;54.63;;;8.70;99.90;;;;;;5039548;28;20531;-77
2024/03/31 04:18:43;;;;;;;50.63;48.17;;;8.70;99.90;;;;;;5049708;28;20482;-77
2024/03/31 04:21:09;;;;;;;66.85;63.50;;;8.70;99.90;;;;;;5050506;28;20477;-77
2024/03/31 04:23:39;;;;;;;54.42;51.78;;;8.70;99.90;;;;;;5050788;28;20036;-77
2024/03/31 04:26:06;;;;;;;25.88;24.63;;;8.70;99.90;;;;;;5039462;28;20607;-76
2024/03/31 04:28:32;;;;;;;42.97;40.85;;;8.70;99.90;;;;;;5030990;28;20033;-77
2024/03/31 04:31:02;;;;;;;29.15;27.73;;;8.80;99.90;;;;;;5036656;28;20033;-77
2024/03/31 04:33:31;;;;;;;23.58;22.48;;;8.80;99.90;;;;;;5050866;28;20021;-76
2024/03/31 04:35:57;;;;;;;30.90;29.45;;;8.80;99.90;;;;;;5045589;28;20053;-77
2024/03/31 04:38:24;;;;;;;40.00;38.13;;;8.80;99.90;;;;;;5052024;28;20036;-77
2024/03/31 04:40:56;;;;;;;39.28;37.38;;;8.80;99.90;;;;;;5051882;28;20041;-76
2024/03/31 04:43:23;;;;;;;74.55;70.85;;;8.90;99.90;;;;;;5051624;28;20043;-76
2024/03/31 04:46:03;;;;;;;36.03;34.33;;;8.90;99.90;;;;;;5051146;28;20055;-76
2024/03/31 04:48:36;;;;;;;55.40;52.78;;;8.80;99.90;;;;;;5049919;28;20081;-76
2024/03/31 04:51:06;;;;;;;59.90;57.03;;;8.80;99.90;;;;;;5051303;28;20112;-76
2024/03/31 04:53:33;;;;;;;32.65;31.08;;;8.70;99.90;;;;;;5051692;28;20516;-74
2024/03/31 04:56:00;;;;;;;54.80;52.10;;;8.60;99.90;;;;;;5050275;28;20051;-75
2024/03/31 04:58:27;;;;;;;45.60;43.22;;;8.50;99.90;;;;;;5050943;28;20045;-75
2024/03/31 05:00:54;;;;;;;33.67;32.10;;;8.50;99.90;;;;;;5049021;28;20040;-76
2024/03/31 05:03:23;;;;;;;41.25;39.05;;;8.50;99.90;;;;;;5051752;28;20044;-76
2024/03/31 05:05:49;;;;;;;50.60;48.00;;;8.50;99.90;;;;;;5047543;28;20037;-76
2024/03/31 05:08:15;;;;;;;94.70;89.35;;;8.50;99.90;;;;;;5032026;28;20032;-75
2024/03/31 05:10:55;;;;;;;35.10;33.40;;;8.50;99.90;;;;;;5034773;28;20477;-76
2024/03/31 05:13:21;;;;;;;23.75;22.65;;;8.50;99.90;;;;;;5050403;28;20401;-73
2024/03/31 05:15:57;;;;;;;25.38;24.17;;;8.50;99.90;;;;;;5050723;28;20040;-73
2024/03/31 05:18:23;;;;;;;52.65;49.65;;;8.50;99.90;;;;;;5051820;28;20088;-73
2024/03/31 05:20:59;;;;;;;28.02;26.70;;;8.40;99.90;;;;;;5051079;28;20382;-72
2024/03/31 05:23:25;;;;;;;25.38;24.13;;;8.50;99.90;;;;;;5051673;28;20056;-72
2024/03/31 05:25:51;;;;;;;27.63;26.30;;;8.50;99.90;;;;;;5042839;28;20045;-73
2024/03/31 05:28:18;;;;;;;27.52;26.23;;;8.40;99.90;;;;;;5031907;28;20033;-73
2024/03/31 05:30:45;;;;;;;61.25;58.17;;;8.40;99.90;;;;;;5030899;28;20363;-73
2024/03/31 05:33:11;;;;;;;29.50;28.00;;;8.40;99.90;;;;;;5031576;28;20030;-73
2024/03/31 05:35:39;;;;;;;59.47;56.65;;;8.40;99.90;;;;;;5043899;28;20496;-72
2024/03/31 05:38:07;;;;;;;34.45;32.83;;;8.30;99.90;;;;;;5055218;28;20025;-71
2024/03/31 05:40:33;;;;;;;83.25;79.10;;;8.40;99.90;;;;;;5054828;28;20025;-73
2024/03/31 05:42:59;;;;;;;53.30;50.63;;;8.40;99.90;;;;;;5055007;28;20377;-73
2024/03/31 05:45:25;;;;;;;42.63;40.55;;;8.30;99.90;;;;;;5053995;28;20037;-72
2024/03/31 05:47:51;;;;;;;31.23;29.52;;;8.30;99.90;;;;;;5054875;28;20045;-73
2024/03/31 05:50:17;;;;;;;27.45;26.13;;;8.30;99.90;;;;;;5069784;28;20437;-73
2024/03/31 05:52:43;;;;;;;26.98;25.73;;;8.30;99.90;;;;;;5054903;28;20029;-73
2024/03/31 05:55:09;;;;;;;41.58;39.60;;;8.30;99.90;;;;;;5054755;28;20500;-73
2024/03/31 05:57:36;;;;;;;42.78;40.70;;;8.40;99.90;;;;;;5054791;28;20036;-73
2024/03/31 06:00:02;;;;;;;45.88;43.70;;;8.20;99.90;;;;;;5055035;28;20574;-73
2024/03/31 06:02:29;;;;;;;38.88;37.05;;;8.30;99.90;;;;;;5053135;28;20034;-73
2024/03/31 06:04:57;;;;;;;43.83;41.75;;;8.20;99.90;;;;;;5054765;28;20381;-73
2024/03/31 06:07:24;;;;;;;60.08;57.03;;;8.20;99.90;;;;;;5054341;28;20057;-73
2024/03/31 06:09:50;;;;;;;55.20;52.55;;;8.20;99.90;;;;;;5053569;28;20025;-73
2024/03/31 06:12:16;;;;;;;52.22;49.67;;;8.20;99.90;;;;;;5054088;28;20500;-73
2024/03/31 06:14:42;;;;;;;44.53;42.17;;;8.20;99.90;;;;;;5054746;28;20028;-73
2024/03/31 06:17:08;;;;;;;50.83;48.38;;;8.20;99.90;;;;;;5053129;28;20044;-73
2024/03/31 06:19:34;;;;;;;44.72;42.53;;;8.20;99.90;;;;;;5054223;28;20037;-73
2024/03/31 06:22:00;;;;;;;36.97;35.20;;;8.20;99.90;;;;;;5053898;28;20044;-73
2024/03/31 06:24:26;;;;;;;38.85;36.88;;;8.20;99.90;;;;;;5054291;28;20025;-72
2024/03/31 06:26:52;;;;;;;40.47;38.50;;;8.10;99.90;;;;;;5037061;28;20057;-72
2024/03/31 06:29:18;;;;;;;34.60;32.95;;;8.10;99.90;;;;;;5034131;28;20052;-73
2024/03/31 06:31:45;;;;;;;35.38;33.63;;;8.10;99.90;;;;;;5046228;28;20061;-73
2024/03/31 06:34:11;;;;;;;42.85;40.83;;;8.10;99.90;;;;;;5053875;28;20048;-73
2024/03/31 06:36:37;;;;;;;45.25;43.00;;;8.20;99.90;;;;;;5053893;28;20040;-73
2024/03/31 06:39:03;;;;;;;53.30;50.67;;;8.20;99.90;;;;;;5054075;28;20052;-73
2024/03/31 06:41:29;;;;;;;59.97;56.88;;;8.20;99.90;;;;;;5053464;28;20033;-72
2024/03/31 06:43:55;;;;;;;57.15;54.33;;;8.10;99.90;;;;;;5054068;28;20029;-73
2024/03/31 06:46:21;;;;;;;37.85;35.95;;;8.10;99.90;;;;;;5052722;28;20045;-73
2024/03/31 06:48:47;;;;;;;38.60;36.70;;;8.10;99.90;;;;;;5051933;28;20025;-72
2024/03/31 06:51:13;;;;;;;40.75;38.70;;;8.10;99.90;;;;;;5053470;28;20041;-72
2024/03/31 06:53:39;;;;;;;31.90;30.25;;;8.10;99.90;;;;;;5053678;28;20029;-73
2024/03/31 06:56:05;;;;;;;33.58;31.98;;;8.20;99.90;;;;;;5053144;28;20416;-72
2024/03/31 06:58:31;;;;;;;26.35;25.10;;;8.20;99.90;;;;;;5053519;28;20040;-72
2024/03/31 07:00:58;;;;;;;26.15;24.85;;;8.30;99.90;;;;;;5052248;28;20033;-72
2024/03/31 07:03:24;;;;;;;28.85;27.50;;;8.30;99.90;;;;;;5052145;28;20071;-72
2024/03/31 07:05:50;;;;;;;31.48;29.95;;;8.40;99.90;;;;;;5052749;28;20040;-72
2024/03/31 07:08:16;;;;;;;38.72;36.83;;;8.60;99.90;;;;;;5053460;28;20037;-72
2024/03/31 07:10:42;;;;;;;65.22;62.05;;;8.60;99.90;;;;;;5051564;28;20040;-72
2024/03/31 07:13:08;;;;;;;37.05;35.30;;;8.70;99.90;;;;;;5068845;28;20045;-72
2024/03/31 07:15:34;;;;;;;34.30;32.53;;;8.80;99.90;;;;;;5052075;28;20409;-72
2024/03/31 07:18:08;;;;;;;33.20;31.65;;;8.80;99.90;;;;;;5053317;28;20024;-72
2024/03/31 07:20:34;;;;;;;32.85;31.13;;;8.90;99.90;;;;;;5052773;28;20025;-72
2024/03/31 07:23:02;;;;;;;36.58;34.88;;;9.00;99.90;;;;;;5051844;28;20052;-72
2024/03/31 07:25:29;;;;;;;32.40;30.88;;;9.00;99.90;;;;;;5047332;28;20034;-72
2024/03/31 07:27:55;;;;;;;34.30;32.70;;;9.00;99.90;;;;;;5033221;28;20032;-72
2024/03/31 07:30:21;;;;;;;49.20;46.85;;;9.00;99.90;;;;;;5033485;28;20022;-72
2024/03/31 07:32:47;;;;;;;30.00;28.60;;;9.10;99.90;;;;;;5051952;28;20025;-72
2024/03/31 07:35:14;;;;;;;34.28;32.63;;;9.10;99.90;;;;;;5052262;28;20037;-72
2024/03/31 07:37:40;;;;;;;33.35;31.70;;;9.20;99.90;;;;;;5053175;28;20041;-72
2024/03/31 07:40:07;;;;;;;33.42;31.88;;;9.30;99.90;;;;;;5052789;28;20033;-72
2024/03/31 07:42:33;;;;;;;36.78;35.00;;;9.30;99.90;;;;;;5067328;28;20032;-72
2024/03/31 07:44:59;;;;;;;34.35;32.75;;;9.20;99.90;;;;;;5052227;28;20500;-72
2024/03/31 07:47:25;;;;;;;30.58;29.15;;;9.30;99.90;;;;;;5051745;28;20049;-72
2024/03/31 07:49:51;;;;;;;44.33;42.22;;;9.50;99.90;;;;;;5052872;28;20496;-72
2024/03/31 07:52:17;;;;;;;31.05;29.58;;;9.50;99.90;;;;;;5052000;28;20029;-72
2024/03/31 07:54:44;;;;;;;30.10;28.65;;;9.60;99.90;;;;;;5052816;28;20382;-72
2024/03/31 07:57:10;;;;;;;36.78;34.97;;;9.60;99.90;;;;;;5052050;28;20048;-72
2024/03/31 07:59:36;;;;;;;45.63;43.45;;;9.70;99.90;;;;;;5052010;28;20030;-72
2024/03/31 08:02:02;;;;;;;25.00;23.80;;;9.80;99.90;;;;;;5051541;28;20044;-72
2024/03/31 08:04:29;;;;;;;42.47;40.47;;;9.80;99.90;;;;;;5052517;28;20050;-72
2024/03/31 08:06:55;;;;;;;28.70;27.38;;;9.90;99.90;;;;;;5051743;28;20037;-72
2024/03/31 08:09:21;;;;;;;49.65;47.25;;;10.10;99.90;;;;;;5052492;28;20049;-73
2024/03/31 08:11:47;;;;;;;30.77;29.33;;;10.00;99.90;;;;;;5051917;28;20029;-73
2024/03/31 08:14:13;;;;;;;32.25;30.75;;;10.00;99.90;;;;;;5052031;28;20911;-72
2024/03/31 08:16:39;;;;;;;78.28;74.47;;;10.10;99.90;;;;;;5051409;28;20036;-73
2024/03/31 08:19:06;;;;;;;76.22;72.55;;;10.10;99.90;;;;;;5052204;28;20037;-73
2024/03/31 08:21:32;;;;;;;57.55;54.80;;;10.20;99.90;;;;;;5052186;28;20486;-73
2024/03/31 08:23:58;;;;;;;37.50;35.75;;;10.20;99.90;;;;;;5052174;28;20048;-73
2024/03/31 08:26:24;;;;;;;43.45;41.38;;;10.30;99.90;;;;;;5038902;28;20044;-73
2024/03/31 08:28:50;;;;;;;52.50;50.03;;;10.30;99.90;;;;;;5031931;28;20037;-73
2024/03/31 08:31:16;;;;;;;58.47;55.72;;;10.30;99.90;;;;;;5040681;28;20029;-73
2024/03/31 08:33:45;;;;;;;55.50;52.88;;;10.30;99.90;;;;;;5052298;28;20036;-73
2024/03/31 08:36:11;;;;;;;54.50;51.95;;;10.40;99.90;;;;;;5051548;28;20037;-73
2024/03/31 08:38:38;;;;;;;61.17;58.22;;;10.50;99.90;;;;;;5052057;28;20026;-73
2024/03/31 08:41:05;;;;;;;51.35;48.85;;;10.60;99.90;;;;;;5051740;28;20064;-73
2024/03/31 08:43:35;;;;;;;36.35;34.50;;;10.90;99.90;;;;;;5050388;28;20028;-73
2024/03/31 08:46:01;;;;;;;29.45;28.08;;;11.00;99.90;;;;;;5050070;28;20045;-73
2024/03/31 08:48:29;;;;;;;29.73;28.35;;;11.10;99.90;;;;;;5052049;28;20040;-73
2024/03/31 08:50:55;;;;;;;35.83;34.15;;;11.20;99.90;;;;;;5050434;28;20029;-73
2024/03/31 08:53:22;;;;;;;33.50;31.85;;;11.30;99.90;;;;;;5052170;28;20033;-73
2024/03/31 08:55:48;;;;;;;30.35;28.95;;;11.50;99.90;;;;;;5051523;28;20033;-73
2024/03/31 08:58:14;;;;;;;43.00;40.95;;;11.80;99.90;;;;;;5051636;28;20029;-74
2024/03/31 09:00:41;;;;;;;53.70;51.15;;;11.90;99.90;;;;;;5051224;28;20398;-73
2024/03/31 09:03:08;;;;;;;94.25;89.70;;;12.00;99.90;;;;;;5051966;28;20025;-73
2024/03/31 09:05:35;;;;;;;174.20;165.38;;;12.20;99.90;;;;;;5051345;28;20033;-73
2024/03/31 09:08:01;;;;;;;121.40;115.53;;;12.30;99.90;;;;;;5050675;28;20363;-73
2024/03/31 09:10:27;;;;;;;122.90;117.00;;;12.30;99.90;;;;;;5051663;28;20029;-73
2024/03/31 09:12:53;;;;;;;91.10;86.72;;;12.30;99.90;;;;;;5055409;28;20056;-72
2024/03/31 09:15:19;;;;;;;55.08;52.45;;;12.40;99.90;;;;;;5054631;28;20470;-73
2024/03/31 09:17:46;;;;;;;35.30;33.65;;;12.40;99.90;;;;;;5054436;28;20032;-72
2024/03/31 09:20:12;;;;;;;28.17;26.85;;;12.50;99.90;;;;;;5053834;28;20034;-72
2024/03/31 09:22:41;;;;;;;27.27;26.00;;;12.40;99.90;;;;;;5055457;28;20045;-72
2024/03/31 09:25:08;;;;;;;27.60;26.33;;;12.30;99.90;;;;;;5051121;28;20033;-72
2024/03/31 09:27:35;;;;;;;25.65;24.45;;;12.30;99.90;;;;;;5035165;28;20048;-72
2024/03/31 09:30:01;;;;;;;64.30;61.28;;;12.40;99.90;;;;;;5035441;28;20021;-72
2024/03/31 09:32:27;;;;;;;31.58;30.08;;;12.40;99.90;;;;;;5053342;28;20401;-73
2024/03/31 09:34:54;;;;;;;20.77;19.83;;;12.30;99.90;;;;;;5055067;28;20036;-72
2024/03/31 09:37:20;;;;;;;23.27;22.20;;;12.20;99.90;;;;;;5054947;28;20048;-72
2024/03/31 09:39:47;;;;;;;40.17;38.28;;;12.20;99.90;;;;;;5054866;28;20040;-72
2024/03/31 09:42:13;;;;;;;34.58;32.97;;;12.10;99.90;;;;;;5054624;28;20045;-72
2024/03/31 09:44:43;;;;;;;34.40;32.80;;;12.10;99.90;;;;;;5053900;28;20032;-73
2024/03/31 09:47:36;;;;;;;28.23;26.92;;;12.00;99.90;;;;;;5052968;28;20041;-72
2024/03/31 09:50:08;;;;;;;43.55;41.50;;;12.00;99.90;;;;;;5055118;28;20021;-73
2024/03/31 09:52:34;;;;;;;38.20;36.40;;;12.00;99.90;;;;;;5053513;28;20033;-72
2024/03/31 09:55:10;;;;;;;31.33;29.88;;;12.00;99.90;;;;;;5053241;28;20032;-72
2024/03/31 09:57:43;;;;;;;32.65;31.15;;;12.10;99.90;;;;;;5054647;28;20374;-72
2024/03/31 10:00:14;;;;;;;28.38;27.08;;;12.10;99.90;;;;;;5054468;28;20465;-72
2024/03/31 10:02:47;;;;;;;28.50;27.17;;;12.20;99.90;;;;;;5054864;28;20044;-72
2024/03/31 10:05:16;;;;;;;29.10;27.75;;;12.30;99.90;;;;;;5053148;28;20033;-72
2024/03/31 10:07:42;;;;;;;28.48;27.15;;;12.20;99.90;;;;;;5053305;28;20036;-72
2024/03/31 10:10:09;;;;;;;27.65;26.35;;;12.20;99.90;;;;;;5053083;28;20033;-72
2024/03/31 10:12:35;;;;;;;29.92;28.52;;;12.10;99.90;;;;;;5033474;28;20033;-73
2024/03/31 10:15:02;;;;;;;33.75;32.17;;;12.10;99.90;;;;;;5033239;28;20045;-78
2024/03/31 10:17:28;;;;;;;35.35;33.70;;;12.00;99.90;;;;;;5052452;28;20037;-77
2024/03/31 10:19:56;;;;;;;35.60;33.95;;;12.00;99.90;;;;;;5036484;28;20592;-77
2024/03/31 10:22:23;;;;;;;50.00;47.60;;;11.90;99.90;;;;;;5050429;28;20056;-77
2024/03/31 10:24:50;;;;;;;35.97;34.28;;;11.90;99.90;;;;;;5054209;28;20080;-77
2024/03/31 10:27:16;;;;;;;42.75;40.75;;;11.70;99.90;;;;;;5047058;28;20044;-77
2024/03/31 10:29:44;;;;;;;39.58;37.72;;;11.60;99.90;;;;;;5053116;28;20390;-77
2024/03/31 10:32:10;;;;;;;39.30;37.47;;;11.60;99.90;;;;;;5051936;28;20041;-76
2024/03/31 10:34:37;;;;;;;41.92;39.95;;;11.50;99.90;;;;;;5053960;28;20048;-77
2024/03/31 10:37:04;;;;;;;51.08;48.67;;;11.50;99.90;;;;;;5052558;28;20525;-77
2024/03/31 10:39:30;;;;;;;49.22;46.90;;;11.50;99.90;;;;;;5052617;28;20469;-77
2024/03/31 10:41:56;;;;;;;54.08;51.55;;;11.40;99.90;;;;;;5053623;28;20029;-77
2024/03/31 10:44:24;;;;;;;54.58;51.97;;;11.30;99.90;;;;;;5053712;28;20029;-77
2024/03/31 10:46:51;;;;;;;47.67;45.47;;;11.40;99.90;;;;;;5053160;28;20516;-77
2024/03/31 10:49:17;;;;;;;52.88;50.42;;;11.30;99.90;;;;;;5052509;28;20032;-76
2024/03/31 10:51:43;;;;;;;63.63;60.65;;;11.30;99.90;;;;;;5053395;28;20424;-76
2024/03/31 10:54:30;;;;;;;65.53;62.42;;;11.30;99.90;;;;;;5052940;28;20044;-75
2024/03/31 10:57:04;;;;;;;45.13;43.03;;;11.30;99.90;;;;;;5053288;28;20037;-76
2024/03/31 10:59:30;;;;;;;40.72;38.75;;;11.00;99.90;;;;;;5053205;28;20036;-75
2024/03/31 11:02:17;;;;;;;32.17;30.67;;;10.80;99.90;;;;;;5052798;28;20036;-76
2024/03/31 11:05:20;;;;;;;58.80;55.92;;;10.70;99.90;;;;;;5053527;28;20037;-76
2024/03/31 11:07:47;;;;;;;89.00;84.70;;;10.60;99.90;;;;;;5010968;28;20057;-76
2024/03/31 11:10:14;;;;;;;76.63;72.97;;;10.70;99.90;;;;;;5010857;28;20034;-76
2024/03/31 11:12:44;;;;;;;52.95;50.45;;;10.70;99.90;;;;;;5011541;28;20041;-76
2024/03/31 11:15:11;;;;;;;65.32;62.22;;;10.70;99.90;;;;;;5010197;28;20048;-77
2024/03/31 11:17:37;;;;;;;96.00;91.32;;;10.80;99.90;;;;;;5011506;28;20106;-77
2024/03/31 11:20:05;;;;;;;61.13;58.25;;;10.80;99.90;;;;;;4995284;28;20041;-76
2024/03/31 11:22:31;;;;;;;74.22;70.72;;;10.90;99.90;;;;;;4994023;28;20046;-74
2024/03/31 11:24:57;;;;;;;89.93;85.65;;;10.90;99.90;;;;;;4993888;28;20029;-73
2024/03/31 11:27:23;;;;;;;101.82;96.80;;;11.00;99.90;;;;;;4991605;28;20053;-73
2024/03/31 11:29:49;;;;;;;163.35;155.38;;;11.10;99.90;;;;;;4991593;28;20416;-73
2024/03/31 11:32:15;;;;;;;181.05;172.05;;;11.20;99.90;;;;;;4991221;28;20041;-73
2024/03/31 11:34:45;;;;;;;97.63;92.90;;;11.30;99.90;;;;;;5010738;28;20042;-73
2024/03/31 11:37:12;;;;;;;137.07;130.40;;;11.30;99.90;;;;;;5010184;28;20038;-73
2024/03/31 11:39:38;;;;;;;103.25;98.32;;;11.40;99.90;;;;;;5010946;28;20042;-74
2024/03/31 11:42:04;;;;;;;48.97;46.67;;;11.40;99.90;;;;;;5011836;28;20041;-73
2024/03/31 11:44:34;;;;;;;35.00;33.33;;;11.40;99.90;;;;;;5012051;28;20022;-73
2024/03/31 11:47:04;;;;;;;28.38;27.02;;;11.40;99.90;;;;;;5010628;28;20049;-73
2024/03/31 11:49:31;;;;;;;36.30;34.58;;;11.40;99.90;;;;;;5011055;28;20057;-74
2024/03/31 11:51:57;;;;;;;37.58;35.78;;;11.40;99.90;;;;;;5011170;28;20053;-73
2024/03/31 11:54:24;;;;;;;40.42;38.53;;;11.40;99.90;;;;;;5012059;28;20037;-73
2024/03/31 11:56:51;;;;;;;38.33;36.53;;;11.50;99.90;;;;;;5011428;28;20390;-73
2024/03/31 11:59:19;;;;;;;25.40;24.23;;;11.70;99.90;;;;;;5011894;28;20026;-73
2024/03/31 12:01:45;;;;;;;22.35;21.00;;;11.80;99.90;;;;;;5010254;28;20049;-73
2024/03/31 12:04:17;;;;;;;52.63;50.17;;;11.80;99.90;;;;;;5013022;28;20026;-73
2024/03/31 12:06:43;;;;;;;47.88;45.63;;;11.80;99.90;;;;;;5012018;28;20030;-73
2024/03/31 12:09:10;;;;;;;34.95;33.33;;;11.80;99.90;;;;;;5011686;28;20033;-73
2024/03/31 12:11:36;;;;;;;40.53;38.53;;;11.80;99.90;;;;;;5012336;28;20030;-74
2024/03/31 12:14:05;;;;;;;27.17;25.90;;;11.80;99.90;;;;;;5012974;28;20029;-74
2024/03/31 12:16:31;;;;;;;40.03;38.13;;;11.80;99.90;;;;;;5010743;28;20038;-74
2024/03/31 12:19:00;;;;;;;30.08;28.65;;;12.00;99.90;;;;;;5011323;28;20065;-73
2024/03/31 12:21:27;;;;;;;41.72;39.72;;;12.00;99.90;;;;;;5016906;28;20027;-72
2024/03/31 12:23:54;;;;;;;62.70;59.72;;;12.10;99.90;;;;;;5051300;28;20037;-73
2024/03/31 12:26:21;;;;;;;49.17;46.88;;;12.30;99.90;;;;;;5038392;28;20041;-73
2024/03/31 12:28:48;;;;;;;42.83;40.83;;;12.40;99.90;;;;;;5030907;28;20025;-73
2024/03/31 12:31:18;;;;;;;30.27;28.83;;;12.50;99.90;;;;;;5041005;28;20041;-73